Time;durP1;ratioP1;P1;durP2;ratioP2;P2;SDS_P1;SDS_P2;PMS_P1;PMS_P2;Temp;Humidity;BMP_temperature;BMP_pressure;BME280_temperature;BME280_humidity;BME280_pressure;Samples;Min_cycle;Max_cycle;Signal;HPM_P1;HPM_P2
2023/12/09 00:01:24;;;;;;;45.47;41.35;;;10.70;99.90;;;;;;5033303;28;20478;-67
2023/12/09 00:03:50;;;;;;;43.47;39.60;;;10.70;99.90;;;;;;5033942;28;20036;-67
2023/12/09 00:06:17;;;;;;;48.85;44.55;;;10.70;99.90;;;;;;5033474;28;20037;-67
2023/12/09 00:08:43;;;;;;;50.63;46.03;;;10.70;99.90;;;;;;5033880;28;20070;-67
2023/12/09 00:11:09;;;;;;;50.00;45.85;;;10.70;99.90;;;;;;5033415;28;20041;-67
2023/12/09 00:13:36;;;;;;;46.03;41.65;;;10.70;99.90;;;;;;5033905;28;20363;-67
2023/12/09 00:16:02;;;;;;;45.72;41.70;;;10.70;99.90;;;;;;5032984;28;20038;-67
2023/12/09 00:18:28;;;;;;;51.92;47.85;;;10.80;99.90;;;;;;5032798;28;20025;-66
2023/12/09 00:20:54;;;;;;;60.15;55.13;;;10.80;99.90;;;;;;5033067;28;20474;-67
2023/12/09 00:23:20;;;;;;;55.45;50.97;;;10.80;99.90;;;;;;5033399;28;20032;-67
2023/12/09 00:25:46;;;;;;;54.15;49.55;;;10.80;99.90;;;;;;5033209;28;20040;-70
2023/12/09 00:28:12;;;;;;;53.85;49.22;;;10.80;99.90;;;;;;5033562;28;20022;-70
2023/12/09 00:30:38;;;;;;;54.40;50.25;;;10.80;99.90;;;;;;5032702;28;20049;-70
2023/12/09 00:33:05;;;;;;;47.15;42.83;;;10.80;99.90;;;;;;5033392;28;20109;-70
2023/12/09 00:35:31;;;;;;;43.15;39.47;;;10.80;99.90;;;;;;5029142;28;20032;-68
2023/12/09 00:37:57;;;;;;;41.75;38.10;;;10.80;99.90;;;;;;5013466;28;20086;-68
2023/12/09 00:40:23;;;;;;;50.00;45.90;;;10.70;99.90;;;;;;5014924;28;20036;-68
2023/12/09 00:42:49;;;;;;;42.42;38.85;;;10.80;99.90;;;;;;5033018;28;20049;-68
2023/12/09 00:45:15;;;;;;;39.55;35.90;;;10.80;99.90;;;;;;5029988;28;20053;-68
2023/12/09 00:47:41;;;;;;;36.30;32.42;;;10.90;99.90;;;;;;5031703;28;20083;-68
2023/12/09 00:50:08;;;;;;;37.33;33.85;;;10.90;99.90;;;;;;5023798;28;20042;-68
2023/12/09 00:52:34;;;;;;;39.13;35.42;;;10.90;99.90;;;;;;5020251;28;20034;-68
2023/12/09 00:55:00;;;;;;;41.42;35.90;;;11.00;99.90;;;;;;5013926;28;20049;-67
2023/12/09 00:57:27;;;;;;;37.03;33.58;;;10.90;99.90;;;;;;5019634;28;20040;-68
2023/12/09 00:59:53;;;;;;;35.58;32.35;;;10.90;99.90;;;;;;5024241;28;20033;-68
2023/12/09 01:02:19;;;;;;;38.95;35.10;;;10.90;99.90;;;;;;5031073;28;20041;-67
2023/12/09 01:04:45;;;;;;;39.08;35.80;;;10.90;99.90;;;;;;5027030;28;20045;-68
2023/12/09 01:07:11;;;;;;;39.10;35.28;;;10.90;99.90;;;;;;5029139;28;20041;-69
2023/12/09 01:09:37;;;;;;;40.30;36.03;;;11.00;99.90;;;;;;5032865;28;20487;-69
2023/12/09 01:12:04;;;;;;;39.97;36.08;;;10.90;99.90;;;;;;5028446;28;20036;-68
2023/12/09 01:14:31;;;;;;;36.25;32.78;;;10.90;99.90;;;;;;5024158;28;20497;-68
2023/12/09 01:16:57;;;;;;;39.40;35.92;;;10.90;99.90;;;;;;5031326;28;20041;-69
2023/12/09 01:19:23;;;;;;;40.42;35.80;;;10.90;99.90;;;;;;5032568;28;20040;-69
2023/12/09 01:21:49;;;;;;;40.63;37.13;;;10.90;99.90;;;;;;5031624;28;20072;-69
2023/12/09 01:24:15;;;;;;;50.95;45.65;;;10.90;99.90;;;;;;5022014;28;20034;-69
2023/12/09 01:26:41;;;;;;;46.80;42.78;;;10.90;99.90;;;;;;5019611;28;20502;-69
2023/12/09 01:29:08;;;;;;;51.30;47.47;;;10.90;99.90;;;;;;5019197;28;20040;-69
2023/12/09 01:31:34;;;;;;;42.30;38.35;;;10.90;99.90;;;;;;5023743;28;20490;-68
2023/12/09 01:34:00;;;;;;;44.60;40.03;;;10.70;99.90;;;;;;5012178;28;20050;-68
2023/12/09 01:36:26;;;;;;;51.97;47.80;;;10.60;99.90;;;;;;5022032;28;20036;-68
2023/12/09 01:38:52;;;;;;;52.40;47.58;;;10.70;99.90;;;;;;5032238;28;20034;-68
2023/12/09 01:41:18;;;;;;;52.28;47.78;;;10.70;99.90;;;;;;5032085;28;20052;-68
2023/12/09 01:43:48;;;;;;;53.63;49.13;;;10.70;99.90;;;;;;5019970;28;20036;-68
2023/12/09 01:46:14;;;;;;;54.67;50.08;;;10.70;99.90;;;;;;5019606;28;20041;-67
2023/12/09 01:48:40;;;;;;;57.80;53.75;;;10.70;99.90;;;;;;5029345;28;20029;-67
2023/12/09 01:51:07;;;;;;;49.83;46.03;;;10.70;99.90;;;;;;5012268;28;20046;-68
2023/12/09 01:53:33;;;;;;;50.60;45.88;;;10.80;99.90;;;;;;5022247;28;20037;-68
2023/12/09 01:55:59;;;;;;;60.95;56.42;;;10.90;99.90;;;;;;5030737;28;20025;-68
2023/12/09 01:58:26;;;;;;;60.28;55.47;;;10.90;99.90;;;;;;5030663;28;20029;-67
2023/12/09 02:00:53;;;;;;;55.70;51.03;;;10.80;99.90;;;;;;5031122;28;20046;-68
2023/12/09 02:03:19;;;;;;;53.97;49.88;;;10.80;99.90;;;;;;5030319;28;20030;-69
2023/12/09 02:05:45;;;;;;;63.42;58.60;;;10.80;99.90;;;;;;5031663;28;20397;-67
2023/12/09 02:08:11;;;;;;;61.00;56.33;;;10.80;99.90;;;;;;5031814;28;20473;-70
2023/12/09 02:10:38;;;;;;;67.20;62.10;;;10.90;99.90;;;;;;5035498;28;20041;-68
2023/12/09 02:13:17;;;;;;;70.20;64.25;;;10.90;99.90;;;;;;5022054;28;20042;-67
2023/12/09 02:15:55;;;;;;;83.50;77.80;;;11.00;99.90;;;;;;5017095;28;20114;-67
2023/12/09 02:18:21;;;;;;;86.50;80.72;;;11.00;99.90;;;;;;5016025;28;20045;-68
2023/12/09 02:20:47;;;;;;;89.75;83.07;;;10.90;99.90;;;;;;5021232;28;20026;-68
2023/12/09 02:23:13;;;;;;;98.82;91.20;;;10.90;99.90;;;;;;5033991;28;20025;-68
2023/12/09 02:25:39;;;;;;;73.10;67.43;;;10.90;99.90;;;;;;5021432;28;20033;-68
2023/12/09 02:28:18;;;;;;;102.40;95.30;;;10.80;99.90;;;;;;5033274;28;20029;-68
2023/12/09 02:31:19;;;;;;;92.05;85.55;;;10.80;99.90;;;;;;5034557;28;20512;-68
2023/12/09 02:33:45;;;;;;;74.00;68.30;;;10.70;99.90;;;;;;4955997;28;20050;-67
2023/12/09 02:36:14;;;;;;;63.45;58.35;;;10.80;99.90;;;;;;4955024;28;20106;-68
2023/12/09 02:38:40;;;;;;;72.35;66.70;;;10.70;99.90;;;;;;4942821;28;20408;-68
2023/12/09 02:41:06;;;;;;;53.50;48.88;;;10.70;99.90;;;;;;4950608;29;20131;-67
2023/12/09 02:43:33;;;;;;;77.05;70.85;;;10.70;99.90;;;;;;4955196;29;20051;-67
2023/12/09 02:45:59;;;;;;;76.43;71.20;;;10.80;99.90;;;;;;4961680;28;20043;-67
2023/12/09 02:48:25;;;;;;;46.78;42.25;;;10.80;99.90;;;;;;4964592;28;20034;-67
2023/12/09 02:50:51;;;;;;;65.72;60.50;;;10.80;99.90;;;;;;4961002;28;20066;-67
2023/12/09 02:53:17;;;;;;;59.75;54.08;;;10.70;99.90;;;;;;4964730;28;20027;-67
2023/12/09 02:55:43;;;;;;;63.00;57.67;;;10.70;99.90;;;;;;4964231;28;20154;-68
2023/12/09 02:58:09;;;;;;;72.32;65.60;;;10.70;99.90;;;;;;4960813;28;20039;-68
2023/12/09 03:00:35;;;;;;;57.35;52.35;;;10.70;99.90;;;;;;4953695;28;20047;-67
2023/12/09 03:03:01;;;;;;;74.60;68.55;;;10.60;99.90;;;;;;4955419;28;20051;-67
2023/12/09 03:05:27;;;;;;;73.00;67.57;;;10.60;99.90;;;;;;4954732;28;20035;-68
2023/12/09 03:07:54;;;;;;;88.03;81.55;;;10.60;99.90;;;;;;4960930;28;20475;-67
2023/12/09 03:10:20;;;;;;;78.68;72.65;;;10.60;99.90;;;;;;5010831;28;20065;-68
2023/12/09 03:12:46;;;;;;;83.72;77.45;;;10.60;99.90;;;;;;5028194;28;20613;-68
2023/12/09 03:15:12;;;;;;;69.53;63.67;;;10.70;99.90;;;;;;5033597;28;20034;-68
2023/12/09 03:17:38;;;;;;;77.18;71.30;;;10.70;99.90;;;;;;5018655;28;20041;-67
2023/12/09 03:20:08;;;;;;;62.03;56.88;;;10.60;99.90;;;;;;5014758;28;20030;-67
2023/12/09 03:22:34;;;;;;;55.10;50.25;;;10.60;99.90;;;;;;5034987;28;20049;-67
2023/12/09 03:25:01;;;;;;;68.70;62.72;;;10.60;99.90;;;;;;5032863;28;20045;-67
2023/12/09 03:27:27;;;;;;;84.00;77.47;;;10.70;99.90;;;;;;5019967;28;20040;-67
2023/12/09 03:29:53;;;;;;;72.97;67.32;;;10.70;99.90;;;;;;5033722;28;20393;-67
2023/12/09 03:32:19;;;;;;;75.97;69.88;;;10.60;99.90;;;;;;5026933;28;20038;-67
2023/12/09 03:34:45;;;;;;;79.28;72.53;;;10.60;99.90;;;;;;5013633;28;20687;-67
2023/12/09 03:37:11;;;;;;;61.28;56.30;;;10.60;99.90;;;;;;5030399;28;20042;-67
2023/12/09 03:39:37;;;;;;;73.60;67.80;;;10.60;99.90;;;;;;5034752;28;20034;-68
2023/12/09 03:42:03;;;;;;;54.38;49.30;;;10.60;99.90;;;;;;5033510;28;20037;-67
2023/12/09 03:44:30;;;;;;;59.33;54.08;;;10.60;99.90;;;;;;5034106;28;20025;-68
2023/12/09 03:46:56;;;;;;;62.33;57.20;;;10.60;99.90;;;;;;5033087;28;20037;-68
2023/12/09 03:49:22;;;;;;;71.63;66.00;;;10.50;99.90;;;;;;5017816;28;20041;-67
2023/12/09 03:51:48;;;;;;;54.75;49.80;;;10.60;99.90;;;;;;5027455;28;20052;-68
2023/12/09 03:54:14;;;;;;;54.88;50.35;;;10.60;99.90;;;;;;5020103;28;20034;-67
2023/12/09 03:56:40;;;;;;;55.00;49.92;;;10.60;99.90;;;;;;5026548;28;20034;-67
2023/12/09 03:59:07;;;;;;;51.78;46.22;;;10.60;99.90;;;;;;5031987;28;20064;-67
2023/12/09 04:01:33;;;;;;;61.53;56.05;;;10.60;99.90;;;;;;5033091;28;20048;-67
2023/12/09 04:03:59;;;;;;;56.13;50.60;;;10.60;99.90;;;;;;5032881;28;20042;-69
2023/12/09 04:06:25;;;;;;;53.88;48.97;;;10.60;99.90;;;;;;5033602;28;20040;-67
2023/12/09 04:08:51;;;;;;;56.65;51.22;;;10.60;99.90;;;;;;5033735;28;20397;-67
2023/12/09 04:11:17;;;;;;;65.60;59.70;;;10.60;99.90;;;;;;5033255;28;20057;-67
2023/12/09 04:13:43;;;;;;;59.10;53.38;;;10.60;99.90;;;;;;5033720;28;20040;-67
2023/12/09 04:16:09;;;;;;;66.00;60.60;;;10.60;99.90;;;;;;5024038;28;20037;-67
2023/12/09 04:18:36;;;;;;;69.65;64.05;;;10.60;99.90;;;;;;5013842;28;20407;-67
2023/12/09 04:21:03;;;;;;;72.70;66.65;;;10.60;99.90;;;;;;5021168;28;20048;-67
2023/12/09 04:23:29;;;;;;;81.80;75.10;;;10.60;99.90;;;;;;5033727;28;20506;-67
2023/12/09 04:25:55;;;;;;;83.47;77.85;;;10.60;99.90;;;;;;5026977;28;20037;-67
2023/12/09 04:28:21;;;;;;;92.43;85.47;;;10.60;99.90;;;;;;5013762;28;20041;-67
2023/12/09 04:30:47;;;;;;;82.22;75.43;;;10.60;99.90;;;;;;5024058;28;20046;-67
2023/12/09 04:33:13;;;;;;;72.28;66.22;;;10.60;99.90;;;;;;5019071;28;20054;-67
2023/12/09 04:35:39;;;;;;;70.38;64.35;;;10.60;99.90;;;;;;5017907;28;20036;-67
2023/12/09 04:38:06;;;;;;;71.97;66.78;;;10.60;99.90;;;;;;5020971;28;20037;-67
2023/12/09 04:40:32;;;;;;;80.88;74.78;;;10.60;99.90;;;;;;5015424;28;20033;-67
2023/12/09 04:42:58;;;;;;;103.90;96.22;;;10.70;99.90;;;;;;5032777;28;20044;-67
2023/12/09 04:45:24;;;;;;;87.65;80.70;;;10.70;99.90;;;;;;5032133;28;20041;-67
2023/12/09 04:47:50;;;;;;;70.90;64.93;;;10.70;99.90;;;;;;5033333;28;20069;-67
2023/12/09 04:50:17;;;;;;;61.67;57.03;;;10.70;99.90;;;;;;5014021;28;20046;-67
2023/12/09 04:52:43;;;;;;;67.32;61.65;;;10.70;99.90;;;;;;5021499;28;20044;-67
2023/12/09 04:55:09;;;;;;;69.65;64.47;;;10.70;99.90;;;;;;5025994;28;20037;-67
2023/12/09 04:57:35;;;;;;;63.17;58.78;;;10.70;99.90;;;;;;5030933;28;20520;-67
2023/12/09 05:00:05;;;;;;;62.90;58.35;;;10.70;99.90;;;;;;5032948;28;20029;-67
2023/12/09 05:02:31;;;;;;;61.03;56.33;;;10.80;99.90;;;;;;5029778;28;20045;-67
2023/12/09 05:04:57;;;;;;;68.97;63.83;;;10.80;99.90;;;;;;5026075;28;20045;-67
2023/12/09 05:07:28;;;;;;;70.80;65.78;;;10.80;99.90;;;;;;5019343;28;20040;-67
2023/12/09 05:09:54;;;;;;;81.53;75.80;;;10.80;99.90;;;;;;5031438;28;20042;-67
2023/12/09 05:12:20;;;;;;;84.15;78.53;;;10.90;99.90;;;;;;5027141;28;20389;-67
2023/12/09 05:14:46;;;;;;;71.68;67.07;;;10.90;99.90;;;;;;5031905;28;20022;-67
2023/12/09 05:17:12;;;;;;;68.90;64.22;;;10.90;99.90;;;;;;5032040;28;20041;-67
2023/12/09 05:19:38;;;;;;;71.88;67.28;;;10.90;99.90;;;;;;5032513;28;20028;-67
2023/12/09 05:22:04;;;;;;;66.72;62.42;;;10.90;99.90;;;;;;5025798;28;20033;-67
2023/12/09 05:24:30;;;;;;;58.58;54.75;;;11.00;99.90;;;;;;5014475;28;20022;-67
2023/12/09 05:26:59;;;;;;;63.20;59.38;;;11.00;99.90;;;;;;5017534;28;20030;-67
2023/12/09 05:29:26;;;;;;;70.50;65.75;;;11.00;99.90;;;;;;5023745;28;20034;-67
2023/12/09 05:31:52;;;;;;;70.32;66.22;;;11.00;99.90;;;;;;5018043;28;20041;-67
2023/12/09 05:34:18;;;;;;;62.97;59.33;;;11.10;99.90;;;;;;5013979;28;20046;-67
2023/12/09 05:36:44;;;;;;;56.42;52.83;;;11.10;99.90;;;;;;5031396;28;20037;-67
2023/12/09 05:39:10;;;;;;;76.47;71.88;;;11.10;99.90;;;;;;5025225;28;20022;-67
2023/12/09 05:41:36;;;;;;;76.60;71.72;;;11.10;99.90;;;;;;5022147;28;20037;-67
2023/12/09 05:44:02;;;;;;;58.88;55.50;;;11.10;99.90;;;;;;5020666;28;20049;-67
2023/12/09 05:46:28;;;;;;;57.90;54.55;;;11.10;99.90;;;;;;5029794;28;20044;-67
2023/12/09 05:48:54;;;;;;;74.25;69.63;;;11.10;99.90;;;;;;5032023;28;20032;-67
2023/12/09 05:51:21;;;;;;;74.45;66.75;;;11.20;99.90;;;;;;5031676;28;20406;-67
2023/12/09 05:53:47;;;;;;;62.05;58.40;;;11.20;99.90;;;;;;5032244;28;20025;-66
2023/12/09 05:56:13;;;;;;;66.32;62.65;;;11.20;99.90;;;;;;5030079;28;20459;-67
2023/12/09 05:58:39;;;;;;;64.80;61.33;;;11.20;99.90;;;;;;5030715;28;20041;-67
2023/12/09 06:01:06;;;;;;;51.83;48.95;;;11.20;99.90;;;;;;5018394;28;20041;-66
2023/12/09 06:03:32;;;;;;;44.53;42.00;;;11.30;99.90;;;;;;5031664;28;20045;-66
2023/12/09 06:05:58;;;;;;;42.67;39.72;;;11.30;99.90;;;;;;5031763;28;20044;-67
2023/12/09 06:08:24;;;;;;;49.58;46.90;;;11.30;99.90;;;;;;5031610;28;20034;-67
2023/12/09 06:10:53;;;;;;;39.65;37.58;;;11.40;99.90;;;;;;5031634;28;20053;-67
2023/12/09 06:13:19;;;;;;;46.25;43.95;;;11.40;99.90;;;;;;5014695;28;20041;-67
2023/12/09 06:15:45;;;;;;;67.68;63.83;;;11.50;99.90;;;;;;5014970;28;20033;-66
2023/12/09 06:18:12;;;;;;;47.42;44.88;;;11.50;99.90;;;;;;5032090;28;20030;-66
2023/12/09 06:20:38;;;;;;;53.08;50.45;;;11.50;99.90;;;;;;5027710;28;20038;-66
2023/12/09 06:23:04;;;;;;;51.38;48.72;;;11.50;99.90;;;;;;5010715;28;20592;-67
2023/12/09 06:25:30;;;;;;;51.70;49.08;;;11.50;99.90;;;;;;5012100;28;20030;-67
2023/12/09 06:27:56;;;;;;;54.00;51.15;;;11.60;99.90;;;;;;5012274;28;20459;-66
2023/12/09 06:30:22;;;;;;;45.35;43.05;;;11.60;99.90;;;;;;5011796;28;20038;-66
2023/12/09 06:32:48;;;;;;;47.45;45.00;;;11.60;99.90;;;;;;5031196;28;20127;-66
2023/12/09 06:35:14;;;;;;;61.38;58.25;;;11.60;99.90;;;;;;5030943;28;20030;-66
2023/12/09 06:37:40;;;;;;;53.42;50.80;;;11.70;99.90;;;;;;5031536;28;20458;-66
2023/12/09 06:40:07;;;;;;;62.42;59.30;;;11.70;99.90;;;;;;5018396;28;20038;-66
2023/12/09 06:42:33;;;;;;;67.97;64.65;;;11.70;99.90;;;;;;5031001;28;20037;-66
2023/12/09 06:44:59;;;;;;;48.60;46.25;;;11.70;99.90;;;;;;5012227;28;20045;-66
2023/12/09 06:47:25;;;;;;;76.03;72.18;;;11.70;99.90;;;;;;5023288;28;20045;-67
2023/12/09 06:49:51;;;;;;;76.00;72.15;;;11.70;99.90;;;;;;5011783;28;20049;-67
2023/12/09 06:52:17;;;;;;;81.75;77.32;;;11.70;99.90;;;;;;5026512;28;20053;-66
2023/12/09 06:54:43;;;;;;;86.57;82.05;;;11.80;99.90;;;;;;5031429;28;20037;-67
2023/12/09 06:57:10;;;;;;;68.72;64.45;;;11.80;99.90;;;;;;5034165;28;20390;-67
2023/12/09 06:59:36;;;;;;;81.50;77.18;;;11.80;99.90;;;;;;5034783;28;20033;-66
2023/12/09 07:02:02;;;;;;;75.10;71.28;;;11.80;99.90;;;;;;5034351;28;20509;-66
2023/12/09 07:04:28;;;;;;;75.93;72.13;;;11.90;99.90;;;;;;5032516;28;20021;-66
2023/12/09 07:06:59;;;;;;;77.43;73.40;;;11.90;99.90;;;;;;5033801;28;20040;-66
2023/12/09 07:09:25;;;;;;;83.57;79.35;;;11.90;99.90;;;;;;5033695;28;20045;-66
2023/12/09 07:11:51;;;;;;;63.78;60.63;;;11.90;99.90;;;;;;5033422;28;20037;-67
2023/12/09 07:14:18;;;;;;;88.20;83.70;;;11.90;99.90;;;;;;5033327;28;20074;-67
2023/12/09 07:16:44;;;;;;;77.35;73.38;;;12.00;99.90;;;;;;5034179;28;20029;-67
2023/12/09 07:19:10;;;;;;;73.55;69.88;;;12.00;99.90;;;;;;5030383;28;20056;-67
2023/12/09 07:21:36;;;;;;;84.97;80.40;;;12.00;99.90;;;;;;5029430;28;20048;-67
2023/12/09 07:24:02;;;;;;;71.57;68.05;;;12.00;99.90;;;;;;5013944;28;20405;-67
2023/12/09 07:26:28;;;;;;;80.30;76.07;;;11.90;99.90;;;;;;5015044;28;20038;-67
2023/12/09 07:28:54;;;;;;;106.68;100.70;;;12.00;99.90;;;;;;5022331;28;20029;-67
2023/12/09 07:31:20;;;;;;;100.72;95.38;;;12.00;99.90;;;;;;5034105;28;20041;-67
2023/12/09 07:33:47;;;;;;;74.78;70.88;;;12.00;99.90;;;;;;5027964;28;20419;-67
2023/12/09 07:36:13;;;;;;;69.07;65.65;;;12.00;99.90;;;;;;5030077;28;20041;-67
2023/12/09 07:38:39;;;;;;;80.78;76.68;;;12.00;99.90;;;;;;5024053;28;20030;-67
2023/12/09 07:41:05;;;;;;;106.60;101.10;;;12.00;99.90;;;;;;5014777;28;20498;-67
2023/12/09 07:43:31;;;;;;;62.03;58.83;;;12.00;99.90;;;;;;5017093;28;20033;-67
2023/12/09 07:45:57;;;;;;;113.47;107.10;;;12.10;99.90;;;;;;5034064;28;20041;-67
2023/12/09 07:48:24;;;;;;;68.15;64.78;;;12.10;99.90;;;;;;5034459;28;20049;-67
2023/12/09 07:50:50;;;;;;;72.15;68.47;;;12.10;99.90;;;;;;5032706;28;20033;-67
2023/12/09 07:53:16;;;;;;;72.50;68.82;;;12.10;99.90;;;;;;5033741;28;20060;-67
2023/12/09 07:55:42;;;;;;;82.78;78.70;;;12.20;99.90;;;;;;5033595;28;20038;-67
2023/12/09 07:58:08;;;;;;;67.00;63.67;;;12.20;99.90;;;;;;5034307;28;20033;-67
2023/12/09 08:00:35;;;;;;;87.20;82.53;;;12.20;99.90;;;;;;5033215;28;20037;-67
2023/12/09 08:03:07;;;;;;;72.68;68.85;;;12.20;99.90;;;;;;5023459;28;20478;-67
2023/12/09 08:05:34;;;;;;;75.65;71.82;;;12.20;99.90;;;;;;5027431;28;20037;-67
2023/12/09 08:08:03;;;;;;;92.10;87.22;;;12.20;99.90;;;;;;5033299;28;20044;-67
2023/12/09 08:10:30;;;;;;;94.93;89.90;;;12.20;99.90;;;;;;5016602;28;20064;-67
2023/12/09 08:12:56;;;;;;;80.55;76.50;;;12.20;99.90;;;;;;5028040;28;20053;-67
2023/12/09 08:15:22;;;;;;;115.78;109.43;;;12.30;99.90;;;;;;5032373;28;20025;-67
2023/12/09 08:17:48;;;;;;;54.38;51.70;;;12.30;99.90;;;;;;5030776;28;20036;-67
2023/12/09 08:20:14;;;;;;;63.80;60.70;;;12.40;99.90;;;;;;5018050;28;20045;-66
2023/12/09 08:22:40;;;;;;;50.97;48.45;;;12.40;99.90;;;;;;5027012;28;20041;-67
2023/12/09 08:25:08;;;;;;;57.03;54.28;;;12.40;99.90;;;;;;5032206;28;20052;-67
2023/12/09 08:27:38;;;;;;;58.45;55.42;;;12.40;99.90;;;;;;5031806;28;20100;-67
2023/12/09 08:30:10;;;;;;;68.40;65.05;;;12.40;99.90;;;;;;5032920;28;20505;-66
2023/12/09 08:32:39;;;;;;;85.13;80.90;;;12.40;99.90;;;;;;5022638;28;20054;-66
2023/12/09 08:35:06;;;;;;;66.28;62.92;;;12.40;99.90;;;;;;5022564;28;20406;-67
2023/12/09 08:37:32;;;;;;;80.85;76.80;;;12.40;99.90;;;;;;5032898;28;20100;-66
2023/12/09 08:40:01;;;;;;;77.68;73.55;;;12.40;99.90;;;;;;5033614;28;20034;-67
2023/12/09 08:42:27;;;;;;;82.63;78.47;;;12.50;99.90;;;;;;5031722;28;20032;-67
2023/12/09 08:44:53;;;;;;;76.28;72.45;;;12.50;99.90;;;;;;5032498;28;20041;-67
2023/12/09 08:47:19;;;;;;;87.88;83.47;;;12.50;99.90;;;;;;5032132;28;20046;-66
2023/12/09 08:49:46;;;;;;;88.90;84.47;;;12.50;99.90;;;;;;5032360;28;20371;-66
2023/12/09 08:52:12;;;;;;;75.55;71.75;;;12.60;99.90;;;;;;5032594;28;20056;-67
2023/12/09 08:54:38;;;;;;;98.85;93.72;;;12.60;99.90;;;;;;5033292;28;20048;-67
2023/12/09 08:57:04;;;;;;;85.43;80.75;;;12.60;99.90;;;;;;5032844;28;20045;-66
2023/12/09 08:59:30;;;;;;;88.28;83.82;;;12.70;99.90;;;;;;5032462;28;20060;-67
2023/12/09 09:01:56;;;;;;;61.13;58.03;;;12.70;99.90;;;;;;5031809;28;20037;-67
2023/12/09 09:04:22;;;;;;;108.88;101.97;;;12.70;99.90;;;;;;5032336;28;20052;-67
2023/12/09 09:06:48;;;;;;;44.35;42.25;;;12.80;99.90;;;;;;5032031;28;20049;-66
2023/12/09 09:09:14;;;;;;;64.03;60.83;;;12.80;99.90;;;;;;5032539;28;20046;-67
2023/12/09 09:11:40;;;;;;;48.67;46.25;;;12.80;99.90;;;;;;5030604;28;20052;-67
2023/12/09 09:14:06;;;;;;;51.25;48.67;;;12.80;99.90;;;;;;5031238;28;20386;-67
2023/12/09 09:16:33;;;;;;;54.05;51.33;;;12.80;99.90;;;;;;5031497;28;20041;-67
2023/12/09 09:18:59;;;;;;;64.25;61.00;;;12.90;99.90;;;;;;5032067;28;20481;-67
2023/12/09 09:21:25;;;;;;;47.83;45.33;;;12.90;99.90;;;;;;5031573;28;20034;-67
2023/12/09 09:23:51;;;;;;;55.45;52.63;;;12.90;99.90;;;;;;5032442;28;20038;-67
2023/12/09 09:26:17;;;;;;;44.13;41.47;;;13.00;99.90;;;;;;5031848;28;20038;-67
2023/12/09 09:28:43;;;;;;;62.75;59.47;;;12.90;99.90;;;;;;5019174;28;20056;-67
2023/12/09 09:31:12;;;;;;;54.95;52.15;;;13.00;99.90;;;;;;5020080;28;20037;-67
2023/12/09 09:33:41;;;;;;;55.90;53.08;;;13.00;99.90;;;;;;5026042;28;20053;-67
2023/12/09 09:36:08;;;;;;;57.42;54.60;;;13.10;99.90;;;;;;5030946;28;20042;-67
2023/12/09 09:38:34;;;;;;;55.78;53.03;;;13.10;99.90;;;;;;5029301;28;20049;-67
2023/12/09 09:41:03;;;;;;;55.00;52.33;;;13.10;99.90;;;;;;5030588;28;20493;-67
2023/12/09 09:43:30;;;;;;;64.55;61.35;;;13.20;99.90;;;;;;5026344;28;20045;-67
2023/12/09 09:45:57;;;;;;;53.97;51.35;;;13.20;99.90;;;;;;5024082;28;20080;-67
2023/12/09 09:48:24;;;;;;;74.90;71.07;;;13.20;99.90;;;;;;5031981;28;20041;-67
2023/12/09 09:50:53;;;;;;;58.80;55.80;;;13.30;99.90;;;;;;5031328;28;20053;-67
2023/12/09 09:53:34;;;;;;;44.97;42.78;;;13.30;99.90;;;;;;5030580;28;20045;-67
2023/12/09 09:56:01;;;;;;;73.13;69.47;;;13.40;99.90;;;;;;5030344;28;20030;-67
2023/12/09 09:58:27;;;;;;;77.35;73.43;;;13.40;99.90;;;;;;5019083;28;20029;-68
2023/12/09 10:00:56;;;;;;;90.38;85.80;;;13.50;99.90;;;;;;5014027;28;20029;-67
2023/12/09 10:03:23;;;;;;;68.20;64.85;;;13.50;99.90;;;;;;5027531;28;20030;-67
2023/12/09 10:05:50;;;;;;;141.57;134.00;;;13.60;99.90;;;;;;5030917;28;20052;-67
2023/12/09 10:08:17;;;;;;;98.10;92.95;;;13.60;99.90;;;;;;5027193;28;20463;-67
2023/12/09 10:10:43;;;;;;;110.47;104.80;;;13.70;99.90;;;;;;5031686;28;20041;-67
2023/12/09 10:13:09;;;;;;;109.35;103.78;;;13.70;99.90;;;;;;5030416;28;20394;-67
2023/12/09 10:15:35;;;;;;;106.45;101.10;;;13.70;99.90;;;;;;5030720;28;20049;-67
2023/12/09 10:18:03;;;;;;;108.28;102.63;;;13.80;99.90;;;;;;5027689;28;20026;-67
2023/12/09 10:20:29;;;;;;;94.40;89.63;;;13.80;99.90;;;;;;5028007;28;20045;-67
2023/12/09 10:22:58;;;;;;;137.95;129.88;;;13.90;99.90;;;;;;5031466;28;20044;-67
2023/12/09 10:25:24;;;;;;;75.40;71.55;;;13.90;99.90;;;;;;5031509;28;20025;-67
2023/12/09 10:27:50;;;;;;;70.45;66.95;;;13.90;99.90;;;;;;5030958;28;20042;-67
2023/12/09 10:30:18;;;;;;;75.93;71.97;;;14.00;99.90;;;;;;5032337;28;20061;-67
2023/12/09 10:32:45;;;;;;;85.75;81.32;;;14.00;99.90;;;;;;5035090;28;20052;-67
2023/12/09 10:35:11;;;;;;;76.80;72.80;;;14.00;99.90;;;;;;5035456;28;20025;-67
2023/12/09 10:37:37;;;;;;;89.55;84.82;;;14.10;99.90;;;;;;5015365;28;20041;-67
2023/12/09 10:40:04;;;;;;;87.65;82.97;;;14.10;99.90;;;;;;5034406;28;20053;-67
2023/12/09 10:42:30;;;;;;;82.90;78.50;;;14.10;99.90;;;;;;5031140;28;20041;-67
2023/12/09 10:44:56;;;;;;;80.03;75.88;;;14.20;99.90;;;;;;5021554;28;20459;-67
2023/12/09 10:47:22;;;;;;;70.28;66.68;;;14.20;99.90;;;;;;5021669;28;20041;-67
2023/12/09 10:49:48;;;;;;;89.00;84.20;;;14.20;99.90;;;;;;5031770;28;20522;-68
2023/12/09 10:52:14;;;;;;;65.72;62.35;;;14.20;99.90;;;;;;5030534;28;20049;-68
2023/12/09 10:54:40;;;;;;;86.40;81.80;;;14.30;99.90;;;;;;5032276;28;20400;-67
2023/12/09 10:57:07;;;;;;;71.40;67.68;;;14.30;99.90;;;;;;5027771;28;20029;-67
2023/12/09 10:59:33;;;;;;;100.00;94.47;;;14.40;99.90;;;;;;5025307;28;20056;-67
2023/12/09 11:01:59;;;;;;;93.00;88.15;;;14.40;99.90;;;;;;5016040;28;20046;-67
2023/12/09 11:04:25;;;;;;;96.20;91.03;;;14.40;99.90;;;;;;5005827;28;20422;-67
2023/12/09 11:06:51;;;;;;;130.13;123.13;;;14.50;99.90;;;;;;5007639;28;20037;-67
2023/12/09 11:09:18;;;;;;;98.28;93.10;;;14.40;99.90;;;;;;5014606;28;20026;-67
2023/12/09 11:11:44;;;;;;;121.10;114.45;;;14.50;99.90;;;;;;5027385;28;20387;-67
2023/12/09 11:14:11;;;;;;;65.57;62.25;;;14.50;99.90;;;;;;5032924;28;20033;-67
2023/12/09 11:16:42;;;;;;;83.85;79.57;;;14.50;99.90;;;;;;5034075;28;20045;-68
2023/12/09 11:19:12;;;;;;;;;;;14.50;99.90;;;;;;5034594;28;20038;-67
2023/12/09 11:21:38;;;;;;;53.95;51.13;;;14.50;99.90;;;;;;5025725;28;19916;-67
2023/12/09 11:24:04;;;;;;;68.72;65.15;;;14.60;99.90;;;;;;5007500;28;20466;-67
2023/12/09 11:26:32;;;;;;;64.28;61.00;;;14.60;99.90;;;;;;5021933;28;20029;-67
2023/12/09 11:29:05;;;;;;;84.45;80.07;;;14.60;99.90;;;;;;5031782;28;20060;-67
2023/12/09 11:31:46;;;;;;;63.28;60.10;;;14.70;99.90;;;;;;5032130;28;20036;-67
2023/12/09 11:34:16;;;;;;;77.35;73.30;;;14.70;99.90;;;;;;5022980;28;20037;-67
2023/12/09 11:36:42;;;;;;;72.35;68.72;;;14.70;99.90;;;;;;5013419;28;20033;-67
2023/12/09 11:39:14;;;;;;;57.25;54.35;;;14.70;99.90;;;;;;5012439;28;20054;-67
2023/12/09 11:41:40;;;;;;;61.10;57.92;;;14.70;99.90;;;;;;5019092;28;20053;-67
2023/12/09 11:44:07;;;;;;;92.40;87.15;;;14.70;99.90;;;;;;5014001;28;20049;-67
2023/12/09 11:46:34;;;;;;;72.63;68.45;;;14.70;99.90;;;;;;5030969;28;20037;-67
2023/12/09 11:49:02;;;;;;;65.05;61.47;;;14.70;99.90;;;;;;5026987;28;20048;-67
2023/12/09 11:51:29;;;;;;;64.57;61.22;;;14.70;99.90;;;;;;5031063;28;20029;-67
2023/12/09 11:53:55;;;;;;;63.35;60.08;;;14.70;99.90;;;;;;5022409;28;20041;-67
2023/12/09 11:56:21;;;;;;;91.65;86.22;;;14.70;99.90;;;;;;5024808;28;20018;-67
2023/12/09 11:58:48;;;;;;;71.63;67.68;;;14.70;99.90;;;;;;5027801;28;20041;-67
2023/12/09 12:01:15;;;;;;;70.15;66.47;;;14.80;99.90;;;;;;5027475;28;20037;-67
2023/12/09 12:03:41;;;;;;;61.63;58.35;;;14.80;99.90;;;;;;5027131;28;20516;-67
2023/12/09 12:06:07;;;;;;;72.93;69.18;;;14.70;99.90;;;;;;5019660;28;20040;-67
2023/12/09 12:08:33;;;;;;;76.65;72.70;;;14.70;99.90;;;;;;5033239;28;20446;-67
2023/12/09 12:10:59;;;;;;;69.07;65.40;;;14.70;99.90;;;;;;5015029;28;20040;-67
2023/12/09 12:13:26;;;;;;;80.45;76.22;;;14.70;99.90;;;;;;5025892;28;20041;-67
2023/12/09 12:15:54;;;;;;;63.38;60.13;;;14.80;99.90;;;;;;5018361;28;20041;-67
2023/12/09 12:18:22;;;;;;;70.85;67.05;;;14.80;99.90;;;;;;5029389;28;20064;-67
2023/12/09 12:20:48;;;;;;;70.97;67.30;;;14.80;99.90;;;;;;5032286;28;20040;-67
2023/12/09 12:23:15;;;;;;;61.80;58.47;;;14.80;99.90;;;;;;5023672;28;21866;-67